sensor_id;sensor_type;location;lat;lon;timestamp;P1;durP1;ratioP1;P2;durP2;ratioP2
60211;SDS011;46079;48.686;15.598;2022-12-26T00:01:49;9.60;;;4.30;;
60211;SDS011;46079;48.686;15.598;2022-12-26T00:04:17;9.75;;;4.30;;
60211;SDS011;46079;48.686;15.598;2022-12-26T00:06:43;10.40;;;4.55;;
60211;SDS011;46079;48.686;15.598;2022-12-26T00:09:08;10.55;;;4.60;;
60211;SDS011;46079;48.686;15.598;2022-12-26T00:11:35;11.15;;;4.40;;
60211;SDS011;46079;48.686;15.598;2022-12-26T00:14:11;11.10;;;4.95;;
60211;SDS011;46079;48.686;15.598;2022-12-26T00:16:39;9.95;;;4.70;;
60211;SDS011;46079;48.686;15.598;2022-12-26T00:19:05;9.13;;;4.40;;
60211;SDS011;46079;48.686;15.598;2022-12-26T00:21:31;10.10;;;4.35;;
60211;SDS011;46079;48.686;15.598;2022-12-26T00:23:58;9.40;;;4.35;;
60211;SDS011;46079;48.686;15.598;2022-12-26T00:26:24;10.07;;;4.55;;
60211;SDS011;46079;48.686;15.598;2022-12-26T00:28:52;9.80;;;4.57;;
60211;SDS011;46079;48.686;15.598;2022-12-26T00:31:19;9.88;;;4.63;;
60211;SDS011;46079;48.686;15.598;2022-12-26T00:33:47;10.73;;;4.40;;
60211;SDS011;46079;48.686;15.598;2022-12-26T00:36:17;10.65;;;4.50;;
60211;SDS011;46079;48.686;15.598;2022-12-26T00:38:44;12.45;;;4.70;;
60211;SDS011;46079;48.686;15.598;2022-12-26T00:41:11;10.48;;;4.40;;
60211;SDS011;46079;48.686;15.598;2022-12-26T00:43:38;10.23;;;4.32;;
60211;SDS011;46079;48.686;15.598;2022-12-26T00:46:03;10.93;;;4.80;;
60211;SDS011;46079;48.686;15.598;2022-12-26T00:48:30;9.85;;;4.22;;
60211;SDS011;46079;48.686;15.598;2022-12-26T00:50:55;10.85;;;4.43;;
60211;SDS011;46079;48.686;15.598;2022-12-26T00:53:21;9.65;;;4.18;;
60211;SDS011;46079;48.686;15.598;2022-12-26T00:55:47;11.00;;;4.25;;
60211;SDS011;46079;48.686;15.598;2022-12-26T00:58:13;10.38;;;4.78;;
60211;SDS011;46079;48.686;15.598;2022-12-26T01:00:39;9.90;;;4.60;;
60211;SDS011;46079;48.686;15.598;2022-12-26T01:03:08;9.50;;;4.43;;
60211;SDS011;46079;48.686;15.598;2022-12-26T01:05:35;10.55;;;4.57;;
60211;SDS011;46079;48.686;15.598;2022-12-26T01:08:05;10.45;;;4.47;;
60211;SDS011;46079;48.686;15.598;2022-12-26T01:10:30;9.93;;;4.45;;
60211;SDS011;46079;48.686;15.598;2022-12-26T01:12:55;9.70;;;4.10;;
60211;SDS011;46079;48.686;15.598;2022-12-26T01:15:21;13.93;;;4.70;;
60211;SDS011;46079;48.686;15.598;2022-12-26T01:17:46;10.40;;;4.82;;
60211;SDS011;46079;48.686;15.598;2022-12-26T01:20:12;10.63;;;4.70;;
60211;SDS011;46079;48.686;15.598;2022-12-26T01:22:46;10.32;;;4.53;;
60211;SDS011;46079;48.686;15.598;2022-12-26T01:25:12;10.15;;;4.55;;
60211;SDS011;46079;48.686;15.598;2022-12-26T01:27:38;10.23;;;4.63;;
60211;SDS011;46079;48.686;15.598;2022-12-26T01:30:03;10.18;;;4.25;;
60211;SDS011;46079;48.686;15.598;2022-12-26T01:32:29;10.50;;;4.32;;
60211;SDS011;46079;48.686;15.598;2022-12-26T01:34:55;10.40;;;4.65;;
60211;SDS011;46079;48.686;15.598;2022-12-26T01:37:21;9.80;;;4.50;;
60211;SDS011;46079;48.686;15.598;2022-12-26T01:39:50;9.48;;;4.30;;
60211;SDS011;46079;48.686;15.598;2022-12-26T01:42:18;9.60;;;4.40;;
60211;SDS011;46079;48.686;15.598;2022-12-26T01:47:42;12.38;;;4.80;;
60211;SDS011;46079;48.686;15.598;2022-12-26T01:50:29;11.45;;;4.70;;
60211;SDS011;46079;48.686;15.598;2022-12-26T01:53:02;11.38;;;4.68;;
60211;SDS011;46079;48.686;15.598;2022-12-26T01:55:34;9.38;;;4.45;;
60211;SDS011;46079;48.686;15.598;2022-12-26T01:58:01;10.05;;;4.50;;
60211;SDS011;46079;48.686;15.598;2022-12-26T02:00:35;9.50;;;4.40;;
60211;SDS011;46079;48.686;15.598;2022-12-26T02:03:02;9.20;;;4.18;;
60211;SDS011;46079;48.686;15.598;2022-12-26T02:05:49;9.02;;;3.88;;
60211;SDS011;46079;48.686;15.598;2022-12-26T02:08:15;9.15;;;4.40;;
60211;SDS011;46079;48.686;15.598;2022-12-26T02:11:06;10.23;;;4.45;;
60211;SDS011;46079;48.686;15.598;2022-12-26T02:13:48;8.82;;;3.95;;
60211;SDS011;46079;48.686;15.598;2022-12-26T02:16:15;8.95;;;4.28;;
60211;SDS011;46079;48.686;15.598;2022-12-26T02:18:42;10.40;;;4.57;;
60211;SDS011;46079;48.686;15.598;2022-12-26T02:40:21;9.13;;;4.30;;
60211;SDS011;46079;48.686;15.598;2022-12-26T02:43:00;9.57;;;4.30;;
60211;SDS011;46079;48.686;15.598;2022-12-26T02:45:34;9.50;;;4.28;;
60211;SDS011;46079;48.686;15.598;2022-12-26T02:48:30;9.32;;;4.20;;
60211;SDS011;46079;48.686;15.598;2022-12-26T02:51:05;10.05;;;4.28;;
60211;SDS011;46079;48.686;15.598;2022-12-26T02:56:56;10.00;;;4.82;;
60211;SDS011;46079;48.686;15.598;2022-12-26T02:59:53;9.82;;;4.40;;
60211;SDS011;46079;48.686;15.598;2022-12-26T03:08:58;9.38;;;4.45;;
60211;SDS011;46079;48.686;15.598;2022-12-26T03:11:47;8.60;;;4.13;;
60211;SDS011;46079;48.686;15.598;2022-12-26T03:14:36;8.85;;;4.18;;
60211;SDS011;46079;48.686;15.598;2022-12-26T03:20:13;10.82;;;4.70;;
60211;SDS011;46079;48.686;15.598;2022-12-26T03:22:42;10.00;;;4.57;;
60211;SDS011;46079;48.686;15.598;2022-12-26T03:28:09;9.10;;;4.18;;
60211;SDS011;46079;48.686;15.598;2022-12-26T03:30:35;9.82;;;4.70;;
60211;SDS011;46079;48.686;15.598;2022-12-26T03:33:13;9.68;;;4.25;;
60211;SDS011;46079;48.686;15.598;2022-12-26T03:39:43;8.75;;;3.88;;
60211;SDS011;46079;48.686;15.598;2022-12-26T03:51:32;9.20;;;4.60;;
60211;SDS011;46079;48.686;15.598;2022-12-26T03:54:31;10.68;;;4.93;;
60211;SDS011;46079;48.686;15.598;2022-12-26T03:57:24;8.80;;;4.10;;
60211;SDS011;46079;48.686;15.598;2022-12-26T04:00:15;9.05;;;4.20;;
60211;SDS011;46079;48.686;15.598;2022-12-26T04:03:04;9.05;;;4.40;;
60211;SDS011;46079;48.686;15.598;2022-12-26T04:08:59;8.93;;;4.00;;
60211;SDS011;46079;48.686;15.598;2022-12-26T04:12:00;9.55;;;4.38;;
60211;SDS011;46079;48.686;15.598;2022-12-26T04:14:47;8.73;;;4.15;;
60211;SDS011;46079;48.686;15.598;2022-12-26T04:23:42;9.82;;;4.55;;
60211;SDS011;46079;48.686;15.598;2022-12-26T04:26:39;9.45;;;4.40;;
60211;SDS011;46079;48.686;15.598;2022-12-26T04:29:28;9.90;;;4.20;;
60211;SDS011;46079;48.686;15.598;2022-12-26T04:32:15;8.82;;;4.00;;
60211;SDS011;46079;48.686;15.598;2022-12-26T04:35:15;9.25;;;4.10;;
60211;SDS011;46079;48.686;15.598;2022-12-26T04:38:03;9.13;;;4.10;;
60211;SDS011;46079;48.686;15.598;2022-12-26T04:40:51;9.73;;;4.45;;
60211;SDS011;46079;48.686;15.598;2022-12-26T04:43:38;9.75;;;4.20;;
60211;SDS011;46079;48.686;15.598;2022-12-26T04:46:24;8.77;;;3.95;;
60211;SDS011;46079;48.686;15.598;2022-12-26T04:48:51;10.63;;;4.13;;
60211;SDS011;46079;48.686;15.598;2022-12-26T04:51:37;9.43;;;4.25;;
60211;SDS011;46079;48.686;15.598;2022-12-26T04:54:02;10.10;;;3.90;;
60211;SDS011;46079;48.686;15.598;2022-12-26T04:56:28;11.23;;;4.07;;
60211;SDS011;46079;48.686;15.598;2022-12-26T04:58:54;8.90;;;4.18;;
60211;SDS011;46079;48.686;15.598;2022-12-26T05:01:19;10.30;;;4.32;;
60211;SDS011;46079;48.686;15.598;2022-12-26T05:04:03;8.50;;;4.07;;
60211;SDS011;46079;48.686;15.598;2022-12-26T05:06:47;9.48;;;3.97;;
60211;SDS011;46079;48.686;15.598;2022-12-26T05:09:31;9.88;;;4.35;;
60211;SDS011;46079;48.686;15.598;2022-12-26T05:12:05;9.32;;;4.18;;
60211;SDS011;46079;48.686;15.598;2022-12-26T05:14:33;10.75;;;4.00;;
60211;SDS011;46079;48.686;15.598;2022-12-26T05:17:00;9.50;;;4.22;;
60211;SDS011;46079;48.686;15.598;2022-12-26T05:19:45;9.07;;;4.00;;
60211;SDS011;46079;48.686;15.598;2022-12-26T05:22:30;9.40;;;4.03;;
60211;SDS011;46079;48.686;15.598;2022-12-26T05:25:20;9.10;;;3.90;;
60211;SDS011;46079;48.686;15.598;2022-12-26T05:28:08;9.10;;;4.20;;
60211;SDS011;46079;48.686;15.598;2022-12-26T05:31:01;9.10;;;4.05;;
60211;SDS011;46079;48.686;15.598;2022-12-26T05:33:28;11.27;;;4.45;;
60211;SDS011;46079;48.686;15.598;2022-12-26T05:36:13;8.63;;;3.83;;
60211;SDS011;46079;48.686;15.598;2022-12-26T05:38:40;9.27;;;4.10;;
60211;SDS011;46079;48.686;15.598;2022-12-26T05:41:05;9.77;;;4.00;;
60211;SDS011;46079;48.686;15.598;2022-12-26T05:43:31;9.45;;;4.28;;
60211;SDS011;46079;48.686;15.598;2022-12-26T05:45:57;8.98;;;4.28;;
60211;SDS011;46079;48.686;15.598;2022-12-26T05:48:22;9.35;;;3.97;;
60211;SDS011;46079;48.686;15.598;2022-12-26T05:50:48;8.60;;;3.97;;
60211;SDS011;46079;48.686;15.598;2022-12-26T05:53:13;9.30;;;4.20;;
60211;SDS011;46079;48.686;15.598;2022-12-26T05:55:39;8.20;;;3.67;;
60211;SDS011;46079;48.686;15.598;2022-12-26T05:58:04;9.20;;;3.88;;
60211;SDS011;46079;48.686;15.598;2022-12-26T06:00:30;8.77;;;4.18;;
60211;SDS011;46079;48.686;15.598;2022-12-26T06:02:57;8.45;;;4.05;;
60211;SDS011;46079;48.686;15.598;2022-12-26T06:05:23;11.23;;;4.00;;
60211;SDS011;46079;48.686;15.598;2022-12-26T06:07:49;9.00;;;4.28;;
60211;SDS011;46079;48.686;15.598;2022-12-26T06:10:14;8.77;;;4.13;;
60211;SDS011;46079;48.686;15.598;2022-12-26T06:12:40;8.68;;;4.03;;
60211;SDS011;46079;48.686;15.598;2022-12-26T06:15:05;8.88;;;4.05;;
60211;SDS011;46079;48.686;15.598;2022-12-26T06:17:31;8.82;;;4.15;;
60211;SDS011;46079;48.686;15.598;2022-12-26T06:19:56;8.02;;;3.65;;
60211;SDS011;46079;48.686;15.598;2022-12-26T06:22:22;9.07;;;3.95;;
60211;SDS011;46079;48.686;15.598;2022-12-26T06:24:47;8.45;;;3.78;;
60211;SDS011;46079;48.686;15.598;2022-12-26T06:27:13;8.55;;;3.80;;
60211;SDS011;46079;48.686;15.598;2022-12-26T06:29:38;9.05;;;4.22;;
60211;SDS011;46079;48.686;15.598;2022-12-26T06:32:04;8.75;;;4.03;;
60211;SDS011;46079;48.686;15.598;2022-12-26T06:34:30;8.43;;;3.78;;
60211;SDS011;46079;48.686;15.598;2022-12-26T06:36:55;8.73;;;4.10;;
60211;SDS011;46079;48.686;15.598;2022-12-26T06:39:21;8.45;;;3.55;;
60211;SDS011;46079;48.686;15.598;2022-12-26T06:41:47;8.88;;;4.32;;
60211;SDS011;46079;48.686;15.598;2022-12-26T06:44:12;9.05;;;4.03;;
60211;SDS011;46079;48.686;15.598;2022-12-26T06:46:38;9.23;;;4.18;;
60211;SDS011;46079;48.686;15.598;2022-12-26T06:49:03;8.63;;;3.63;;
60211;SDS011;46079;48.686;15.598;2022-12-26T06:51:32;8.95;;;4.05;;
60211;SDS011;46079;48.686;15.598;2022-12-26T06:54:00;9.32;;;4.05;;
60211;SDS011;46079;48.686;15.598;2022-12-26T06:56:29;9.52;;;3.97;;
60211;SDS011;46079;48.686;15.598;2022-12-26T06:58:57;8.27;;;3.97;;
60211;SDS011;46079;48.686;15.598;2022-12-26T07:01:27;8.82;;;3.75;;
60211;SDS011;46079;48.686;15.598;2022-12-26T07:03:54;8.98;;;4.22;;
60211;SDS011;46079;48.686;15.598;2022-12-26T07:06:24;8.48;;;3.90;;
60211;SDS011;46079;48.686;15.598;2022-12-26T07:08:57;9.13;;;4.10;;
60211;SDS011;46079;48.686;15.598;2022-12-26T07:11:26;8.63;;;3.70;;
60211;SDS011;46079;48.686;15.598;2022-12-26T07:13:53;8.43;;;3.78;;
60211;SDS011;46079;48.686;15.598;2022-12-26T07:16:19;9.70;;;4.10;;
60211;SDS011;46079;48.686;15.598;2022-12-26T07:18:45;9.57;;;4.00;;
60211;SDS011;46079;48.686;15.598;2022-12-26T07:21:11;8.60;;;3.78;;
60211;SDS011;46079;48.686;15.598;2022-12-26T07:23:38;9.20;;;3.90;;
60211;SDS011;46079;48.686;15.598;2022-12-26T07:26:04;9.02;;;3.90;;
60211;SDS011;46079;48.686;15.598;2022-12-26T07:28:30;9.10;;;4.15;;
60211;SDS011;46079;48.686;15.598;2022-12-26T07:30:56;8.60;;;3.85;;
60211;SDS011;46079;48.686;15.598;2022-12-26T07:33:22;8.65;;;3.88;;
60211;SDS011;46079;48.686;15.598;2022-12-26T07:35:48;8.10;;;3.67;;
60211;SDS011;46079;48.686;15.598;2022-12-26T07:38:13;8.82;;;4.05;;
60211;SDS011;46079;48.686;15.598;2022-12-26T07:40:39;9.13;;;3.83;;
60211;SDS011;46079;48.686;15.598;2022-12-26T07:43:05;8.38;;;3.60;;
60211;SDS011;46079;48.686;15.598;2022-12-26T07:45:30;9.55;;;4.18;;
60211;SDS011;46079;48.686;15.598;2022-12-26T07:47:56;8.77;;;3.70;;
60211;SDS011;46079;48.686;15.598;2022-12-26T07:50:23;8.73;;;3.88;;
60211;SDS011;46079;48.686;15.598;2022-12-26T07:52:50;8.30;;;3.83;;
60211;SDS011;46079;48.686;15.598;2022-12-26T07:55:15;9.00;;;4.00;;
60211;SDS011;46079;48.686;15.598;2022-12-26T07:57:41;8.75;;;3.72;;
60211;SDS011;46079;48.686;15.598;2022-12-26T08:00:07;8.98;;;4.00;;
60211;SDS011;46079;48.686;15.598;2022-12-26T08:02:33;8.95;;;4.05;;
60211;SDS011;46079;48.686;15.598;2022-12-26T08:04:59;8.57;;;3.78;;
60211;SDS011;46079;48.686;15.598;2022-12-26T08:07:25;8.80;;;3.90;;
60211;SDS011;46079;48.686;15.598;2022-12-26T08:09:50;8.95;;;3.58;;
60211;SDS011;46079;48.686;15.598;2022-12-26T08:12:16;8.60;;;3.95;;
60211;SDS011;46079;48.686;15.598;2022-12-26T08:14:46;8.10;;;3.78;;
60211;SDS011;46079;48.686;15.598;2022-12-26T08:17:11;8.10;;;3.88;;
60211;SDS011;46079;48.686;15.598;2022-12-26T08:19:37;8.05;;;3.63;;
60211;SDS011;46079;48.686;15.598;2022-12-26T08:22:03;8.32;;;3.90;;
60211;SDS011;46079;48.686;15.598;2022-12-26T08:24:28;8.85;;;4.28;;
60211;SDS011;46079;48.686;15.598;2022-12-26T08:26:54;8.30;;;3.78;;
60211;SDS011;46079;48.686;15.598;2022-12-26T08:29:19;8.60;;;3.85;;
60211;SDS011;46079;48.686;15.598;2022-12-26T08:31:45;7.82;;;3.60;;
60211;SDS011;46079;48.686;15.598;2022-12-26T08:34:10;8.30;;;3.95;;
60211;SDS011;46079;48.686;15.598;2022-12-26T08:36:37;8.52;;;3.60;;
60211;SDS011;46079;48.686;15.598;2022-12-26T08:39:03;9.45;;;4.07;;
60211;SDS011;46079;48.686;15.598;2022-12-26T08:41:29;8.35;;;3.97;;
60211;SDS011;46079;48.686;15.598;2022-12-26T08:43:54;8.82;;;3.85;;
60211;SDS011;46079;48.686;15.598;2022-12-26T08:46:20;8.18;;;3.60;;
60211;SDS011;46079;48.686;15.598;2022-12-26T08:48:46;8.80;;;3.92;;
60211;SDS011;46079;48.686;15.598;2022-12-26T08:51:14;8.63;;;4.22;;
60211;SDS011;46079;48.686;15.598;2022-12-26T08:53:42;13.57;;;7.75;;
60211;SDS011;46079;48.686;15.598;2022-12-26T08:56:10;14.48;;;8.57;;
60211;SDS011;46079;48.686;15.598;2022-12-26T08:58:37;16.83;;;10.52;;
60211;SDS011;46079;48.686;15.598;2022-12-26T09:01:07;15.38;;;9.32;;
60211;SDS011;46079;48.686;15.598;2022-12-26T09:03:38;14.68;;;9.13;;
60211;SDS011;46079;48.686;15.598;2022-12-26T09:06:05;15.27;;;8.93;;
60211;SDS011;46079;48.686;15.598;2022-12-26T09:08:31;14.65;;;7.75;;
60211;SDS011;46079;48.686;15.598;2022-12-26T09:11:04;13.60;;;7.90;;
60211;SDS011;46079;48.686;15.598;2022-12-26T09:13:31;13.63;;;7.63;;
60211;SDS011;46079;48.686;15.598;2022-12-26T09:16:14;12.35;;;7.07;;
60211;SDS011;46079;48.686;15.598;2022-12-26T09:18:42;13.73;;;7.45;;
60211;SDS011;46079;48.686;15.598;2022-12-26T09:21:09;12.63;;;6.90;;
60211;SDS011;46079;48.686;15.598;2022-12-26T09:23:36;11.88;;;6.78;;
60211;SDS011;46079;48.686;15.598;2022-12-26T09:26:09;13.48;;;6.82;;
60211;SDS011;46079;48.686;15.598;2022-12-26T09:28:44;12.95;;;7.10;;
60211;SDS011;46079;48.686;15.598;2022-12-26T09:31:12;11.80;;;6.45;;
60211;SDS011;46079;48.686;15.598;2022-12-26T09:33:40;12.38;;;6.97;;
60211;SDS011;46079;48.686;15.598;2022-12-26T09:36:06;12.57;;;7.18;;
60211;SDS011;46079;48.686;15.598;2022-12-26T09:38:33;11.82;;;6.45;;
60211;SDS011;46079;48.686;15.598;2022-12-26T09:46:18;12.25;;;6.40;;
60211;SDS011;46079;48.686;15.598;2022-12-26T09:49:10;12.27;;;6.40;;
60211;SDS011;46079;48.686;15.598;2022-12-26T09:51:41;11.02;;;6.15;;
60211;SDS011;46079;48.686;15.598;2022-12-26T09:54:14;12.88;;;6.82;;
60211;SDS011;46079;48.686;15.598;2022-12-26T09:56:47;13.65;;;7.30;;
60211;SDS011;46079;48.686;15.598;2022-12-26T09:59:15;11.57;;;6.43;;
60211;SDS011;46079;48.686;15.598;2022-12-26T10:01:43;11.98;;;6.32;;
60211;SDS011;46079;48.686;15.598;2022-12-26T10:04:22;11.80;;;6.47;;
60211;SDS011;46079;48.686;15.598;2022-12-26T10:18:23;12.00;;;6.45;;
60211;SDS011;46079;48.686;15.598;2022-12-26T10:23:57;11.15;;;6.45;;
60211;SDS011;46079;48.686;15.598;2022-12-26T10:26:33;11.30;;;6.15;;
60211;SDS011;46079;48.686;15.598;2022-12-26T10:34:25;10.77;;;5.78;;
60211;SDS011;46079;48.686;15.598;2022-12-26T10:42:17;10.70;;;5.68;;
60211;SDS011;46079;48.686;15.598;2022-12-26T10:52:25;12.30;;;6.18;;
60211;SDS011;46079;48.686;15.598;2022-12-26T10:54:56;11.65;;;6.32;;
60211;SDS011;46079;48.686;15.598;2022-12-26T10:57:23;12.05;;;6.15;;
60211;SDS011;46079;48.686;15.598;2022-12-26T10:59:53;14.95;;;6.45;;
60211;SDS011;46079;48.686;15.598;2022-12-26T11:02:26;11.55;;;5.97;;
60211;SDS011;46079;48.686;15.598;2022-12-26T11:05:01;12.70;;;6.15;;
60211;SDS011;46079;48.686;15.598;2022-12-26T11:07:34;11.27;;;6.18;;
60211;SDS011;46079;48.686;15.598;2022-12-26T11:10:02;11.50;;;6.00;;
60211;SDS011;46079;48.686;15.598;2022-12-26T11:15:50;12.65;;;6.00;;
60211;SDS011;46079;48.686;15.598;2022-12-26T11:17:52;12.57;;;6.05;;
60211;SDS011;46079;48.686;15.598;2022-12-26T11:22:49;12.43;;;5.97;;
60211;SDS011;46079;48.686;15.598;2022-12-26T11:25:16;12.70;;;5.63;;
60211;SDS011;46079;48.686;15.598;2022-12-26T11:27:59;11.52;;;6.05;;
60211;SDS011;46079;48.686;15.598;2022-12-26T11:30:45;11.65;;;6.10;;
60211;SDS011;46079;48.686;15.598;2022-12-26T11:33:16;12.35;;;5.95;;
60211;SDS011;46079;48.686;15.598;2022-12-26T11:35:53;12.25;;;5.72;;
60211;SDS011;46079;48.686;15.598;2022-12-26T11:38:26;11.23;;;5.70;;
60211;SDS011;46079;48.686;15.598;2022-12-26T11:40:59;11.45;;;5.53;;
60211;SDS011;46079;48.686;15.598;2022-12-26T11:43:45;11.63;;;5.85;;
60211;SDS011;46079;48.686;15.598;2022-12-26T11:46:12;11.77;;;5.90;;
60211;SDS011;46079;48.686;15.598;2022-12-26T11:48:37;10.60;;;5.78;;
60211;SDS011;46079;48.686;15.598;2022-12-26T11:51:04;10.45;;;5.57;;
60211;SDS011;46079;48.686;15.598;2022-12-26T11:53:29;11.93;;;5.97;;
60211;SDS011;46079;48.686;15.598;2022-12-26T11:56:03;11.73;;;5.55;;
60211;SDS011;46079;48.686;15.598;2022-12-26T11:58:31;10.85;;;5.35;;
60211;SDS011;46079;48.686;15.598;2022-12-26T12:05:53;9.88;;;5.05;;
60211;SDS011;46079;48.686;15.598;2022-12-26T12:08:36;11.15;;;5.65;;
60211;SDS011;46079;48.686;15.598;2022-12-26T12:17:18;10.50;;;5.35;;
60211;SDS011;46079;48.686;15.598;2022-12-26T12:26:05;10.57;;;5.38;;
60211;SDS011;46079;48.686;15.598;2022-12-26T12:36:23;10.80;;;5.75;;
60211;SDS011;46079;48.686;15.598;2022-12-26T12:39:14;10.07;;;5.20;;
60211;SDS011;46079;48.686;15.598;2022-12-26T12:50:34;10.63;;;5.30;;
60211;SDS011;46079;48.686;15.598;2022-12-26T13:01:32;10.52;;;5.38;;
60211;SDS011;46079;48.686;15.598;2022-12-26T13:04:03;9.70;;;4.97;;
60211;SDS011;46079;48.686;15.598;2022-12-26T13:06:46;10.80;;;5.38;;
60211;SDS011;46079;48.686;15.598;2022-12-26T13:12:19;11.30;;;5.32;;
60211;SDS011;46079;48.686;15.598;2022-12-26T13:14:48;10.90;;;5.50;;
60211;SDS011;46079;48.686;15.598;2022-12-26T13:17:24;12.43;;;5.68;;
60211;SDS011;46079;48.686;15.598;2022-12-26T13:22:43;11.52;;;5.65;;
60211;SDS011;46079;48.686;15.598;2022-12-26T13:25:36;10.98;;;5.30;;
60211;SDS011;46079;48.686;15.598;2022-12-26T13:28:28;10.43;;;4.63;;
60211;SDS011;46079;48.686;15.598;2022-12-26T13:30:54;11.05;;;5.43;;
60211;SDS011;46079;48.686;15.598;2022-12-26T13:33:20;9.70;;;5.20;;
60211;SDS011;46079;48.686;15.598;2022-12-26T13:38:17;11.68;;;5.55;;
60211;SDS011;46079;48.686;15.598;2022-12-26T13:40:47;10.68;;;5.13;;
60211;SDS011;46079;48.686;15.598;2022-12-26T13:43:20;10.55;;;5.03;;
60211;SDS011;46079;48.686;15.598;2022-12-26T13:54:35;12.25;;;5.45;;
60211;SDS011;46079;48.686;15.598;2022-12-26T14:05:31;10.13;;;5.10;;
60211;SDS011;46079;48.686;15.598;2022-12-26T14:16:37;10.65;;;5.40;;
60211;SDS011;46079;48.686;15.598;2022-12-26T14:22:23;12.00;;;5.53;;
60211;SDS011;46079;48.686;15.598;2022-12-26T14:27:59;10.05;;;5.00;;
60211;SDS011;46079;48.686;15.598;2022-12-26T14:30:34;11.82;;;5.40;;
60211;SDS011;46079;48.686;15.598;2022-12-26T14:33:08;11.07;;;5.20;;
60211;SDS011;46079;48.686;15.598;2022-12-26T14:42:25;9.45;;;4.68;;
60211;SDS011;46079;48.686;15.598;2022-12-26T14:44:50;10.20;;;5.20;;
60211;SDS011;46079;48.686;15.598;2022-12-26T14:53:16;11.15;;;5.13;;
60211;SDS011;46079;48.686;15.598;2022-12-26T14:55:54;10.60;;;4.95;;
60211;SDS011;46079;48.686;15.598;2022-12-26T15:03:41;9.55;;;4.78;;
60211;SDS011;46079;48.686;15.598;2022-12-26T15:39:45;11.05;;;5.10;;
60211;SDS011;46079;48.686;15.598;2022-12-26T15:45:12;10.07;;;4.70;;
60211;SDS011;46079;48.686;15.598;2022-12-26T15:50:50;10.55;;;5.18;;
60211;SDS011;46079;48.686;15.598;2022-12-26T16:01:51;9.30;;;4.93;;
60211;SDS011;46079;48.686;15.598;2022-12-26T16:04:23;9.20;;;4.80;;
60211;SDS011;46079;48.686;15.598;2022-12-26T16:07:06;9.68;;;4.65;;
60211;SDS011;46079;48.686;15.598;2022-12-26T16:09:44;9.85;;;4.95;;
60211;SDS011;46079;48.686;15.598;2022-12-26T16:17:50;9.55;;;5.03;;
60211;SDS011;46079;48.686;15.598;2022-12-26T16:20:19;9.77;;;4.53;;
60211;SDS011;46079;48.686;15.598;2022-12-26T16:23:14;9.20;;;4.85;;
60211;SDS011;46079;48.686;15.598;2022-12-26T16:25:46;10.30;;;4.65;;
60211;SDS011;46079;48.686;15.598;2022-12-26T16:28:13;9.27;;;4.90;;
60211;SDS011;46079;48.686;15.598;2022-12-26T16:30:39;9.27;;;4.65;;
60211;SDS011;46079;48.686;15.598;2022-12-26T16:33:05;8.45;;;4.28;;
60211;SDS011;46079;48.686;15.598;2022-12-26T16:35:32;10.02;;;4.95;;
60211;SDS011;46079;48.686;15.598;2022-12-26T16:38:00;9.43;;;4.75;;
60211;SDS011;46079;48.686;15.598;2022-12-26T16:40:30;10.52;;;4.82;;
60211;SDS011;46079;48.686;15.598;2022-12-26T16:45:29;9.27;;;4.88;;
60211;SDS011;46079;48.686;15.598;2022-12-26T16:47:56;9.52;;;5.03;;
60211;SDS011;46079;48.686;15.598;2022-12-26T16:50:23;9.75;;;4.35;;
60211;SDS011;46079;48.686;15.598;2022-12-26T16:53:51;9.38;;;4.57;;
60211;SDS011;46079;48.686;15.598;2022-12-26T16:55:57;9.93;;;4.70;;
60211;SDS011;46079;48.686;15.598;2022-12-26T16:58:53;9.95;;;4.68;;
60211;SDS011;46079;48.686;15.598;2022-12-26T17:01:27;10.25;;;4.90;;
60211;SDS011;46079;48.686;15.598;2022-12-26T17:03:53;9.48;;;4.05;;
60211;SDS011;46079;48.686;15.598;2022-12-26T17:06:26;9.80;;;4.43;;
60211;SDS011;46079;48.686;15.598;2022-12-26T17:08:52;9.90;;;4.65;;
60211;SDS011;46079;48.686;15.598;2022-12-26T17:11:30;8.75;;;4.50;;
60211;SDS011;46079;48.686;15.598;2022-12-26T17:13:59;9.75;;;4.63;;
60211;SDS011;46079;48.686;15.598;2022-12-26T17:16:26;9.20;;;4.78;;
60211;SDS011;46079;48.686;15.598;2022-12-26T17:18:54;10.32;;;5.00;;
60211;SDS011;46079;48.686;15.598;2022-12-26T17:21:25;9.90;;;4.85;;
60211;SDS011;46079;48.686;15.598;2022-12-26T17:24:08;9.15;;;4.60;;
60211;SDS011;46079;48.686;15.598;2022-12-26T17:26:36;10.68;;;4.70;;
60211;SDS011;46079;48.686;15.598;2022-12-26T17:29:02;9.80;;;4.70;;
60211;SDS011;46079;48.686;15.598;2022-12-26T17:31:36;9.98;;;4.88;;
60211;SDS011;46079;48.686;15.598;2022-12-26T17:34:12;9.70;;;4.70;;
60211;SDS011;46079;48.686;15.598;2022-12-26T17:36:42;9.57;;;4.80;;
60211;SDS011;46079;48.686;15.598;2022-12-26T17:39:11;9.50;;;4.55;;
60211;SDS011;46079;48.686;15.598;2022-12-26T17:42:01;9.05;;;4.45;;
60211;SDS011;46079;48.686;15.598;2022-12-26T17:44:34;9.43;;;4.68;;
60211;SDS011;46079;48.686;15.598;2022-12-26T17:49:56;10.25;;;4.60;;
60211;SDS011;46079;48.686;15.598;2022-12-26T17:52:23;9.73;;;4.90;;
60211;SDS011;46079;48.686;15.598;2022-12-26T17:54:51;9.95;;;4.20;;
60211;SDS011;46079;48.686;15.598;2022-12-26T17:57:18;9.20;;;4.60;;
60211;SDS011;46079;48.686;15.598;2022-12-26T17:59:49;9.57;;;4.57;;
60211;SDS011;46079;48.686;15.598;2022-12-26T18:02:16;8.90;;;4.50;;
60211;SDS011;46079;48.686;15.598;2022-12-26T18:04:42;9.20;;;4.75;;
60211;SDS011;46079;48.686;15.598;2022-12-26T18:07:11;9.70;;;4.70;;
60211;SDS011;46079;48.686;15.598;2022-12-26T18:09:45;9.75;;;4.80;;
60211;SDS011;46079;48.686;15.598;2022-12-26T18:12:12;9.43;;;4.50;;
60211;SDS011;46079;48.686;15.598;2022-12-26T18:14:38;9.32;;;4.47;;
60211;SDS011;46079;48.686;15.598;2022-12-26T18:17:04;9.45;;;4.57;;
60211;SDS011;46079;48.686;15.598;2022-12-26T18:19:30;9.10;;;4.65;;
60211;SDS011;46079;48.686;15.598;2022-12-26T18:21:56;9.68;;;4.63;;
60211;SDS011;46079;48.686;15.598;2022-12-26T18:24:21;9.20;;;4.50;;
60211;SDS011;46079;48.686;15.598;2022-12-26T18:26:47;9.25;;;4.47;;
60211;SDS011;46079;48.686;15.598;2022-12-26T18:29:13;9.95;;;4.80;;
60211;SDS011;46079;48.686;15.598;2022-12-26T18:31:39;9.52;;;4.75;;
60211;SDS011;46079;48.686;15.598;2022-12-26T18:34:05;9.27;;;4.50;;
60211;SDS011;46079;48.686;15.598;2022-12-26T18:36:34;9.60;;;4.72;;
60211;SDS011;46079;48.686;15.598;2022-12-26T18:39:02;10.05;;;5.13;;
60211;SDS011;46079;48.686;15.598;2022-12-26T18:41:28;9.65;;;4.35;;
60211;SDS011;46079;48.686;15.598;2022-12-26T18:43:54;9.20;;;4.38;;
60211;SDS011;46079;48.686;15.598;2022-12-26T18:46:22;9.43;;;4.55;;
60211;SDS011;46079;48.686;15.598;2022-12-26T18:48:49;9.13;;;4.60;;
60211;SDS011;46079;48.686;15.598;2022-12-26T18:51:17;8.98;;;4.50;;
60211;SDS011;46079;48.686;15.598;2022-12-26T18:53:43;9.43;;;4.70;;
60211;SDS011;46079;48.686;15.598;2022-12-26T18:56:12;8.98;;;4.50;;
60211;SDS011;46079;48.686;15.598;2022-12-26T19:01:06;8.77;;;4.07;;
60211;SDS011;46079;48.686;15.598;2022-12-26T19:03:32;8.85;;;4.00;;
60211;SDS011;46079;48.686;15.598;2022-12-26T19:05:57;8.98;;;4.60;;
60211;SDS011;46079;48.686;15.598;2022-12-26T19:08:23;10.40;;;4.88;;
60211;SDS011;46079;48.686;15.598;2022-12-26T19:10:48;8.63;;;4.20;;
60211;SDS011;46079;48.686;15.598;2022-12-26T19:13:14;8.27;;;4.28;;
60211;SDS011;46079;48.686;15.598;2022-12-26T19:15:43;10.00;;;4.70;;
60211;SDS011;46079;48.686;15.598;2022-12-26T19:18:10;9.23;;;4.47;;